This is the latest recevied weather packets stored in our database for station/object N0EDB-13. If no packets are shown the sender has not sent any weather packets the latest 10 day(s).
| Time | Temp. | Humidity | Pressure | Rain* | Wind** | Luminosity | Snow |
|---|---|---|---|---|---|---|---|
| 1777768437 | 24.44° C | 10% | 1463 hPa | 0 mm | - | 172 W/m² | - |
| 1777768136 | 25° C | 10% | 1462.4 hPa | 0 mm | - | 189 W/m² | - |
| 1777767836 | 25° C | 10% | 1461.9 hPa | 0 mm | - | 205 W/m² | - |
| 1777767533 | 25° C | 10% | 1462.4 hPa | 0 mm | - | 223 W/m² | - |
| 1777767233 | 25° C | 11% | 1461.9 hPa | 0 mm | - | 241 W/m² | - |
| 1777766932 | 25° C | 10% | 1461.8 hPa | 0 mm | - | 260 W/m² | - |
| 1777766632 | 25° C | 10% | 1462.5 hPa | 0 mm | - | 278 W/m² | - |
| 1777766332 | 25° C | 10% | 1462.3 hPa | 0 mm | - | 295 W/m² | - |
| 1777766031 | 24.44° C | 10% | 1463.6 hPa | 0 mm | - | 315 W/m² | - |
| 1777765730 | 24.44° C | 10% | 1464.4 hPa | 0 mm | - | 337 W/m² | - |
| 1777765430 | 24.44° C | 10% | 1464.3 hPa | 0 mm | - | 355 W/m² | - |
| 1777765130 | 24.44° C | 11% | 1464.6 hPa | 0 mm | - | 374 W/m² | - |
| 1777764829 | 24.44° C | 11% | 1464 hPa | 0 mm | - | 393 W/m² | - |
| 1777764528 | 24.44° C | 11% | 1463.8 hPa | 0 mm | - | 411 W/m² | - |
| 1777764228 | 24.44° C | 11% | 1463.8 hPa | 0 mm | - | 428 W/m² | - |
| 1777763927 | 24.44° C | 10% | 1464.1 hPa | 0 mm | - | 446 W/m² | - |
| 1777763626 | 24.44° C | 11% | 1464.5 hPa | 0 mm | - | 464 W/m² | - |
| 1777763326 | 23.89° C | 11% | 1465.7 hPa | 0 mm | - | 482 W/m² | - |
| 1777763025 | 23.33° C | 12% | 1466.3 hPa | 0 mm | - | 500 W/m² | - |
| 1777762725 | 23.89° C | 11% | 1465.8 hPa | 0 mm | - | 518 W/m² | - |
| 1777762424 | 23.89° C | 12% | 1465.2 hPa | 0 mm | - | 536 W/m² | - |
| 1777762123 | 24.44° C | 11% | 1464.3 hPa | 0 mm | - | 554 W/m² | - |
| 1777761822 | 24.44° C | 12% | 1464.2 hPa | 0 mm | - | 570 W/m² | - |
| 1777761522 | 23.89° C | 11% | 1465.4 hPa | 0 mm | - | 589 W/m² | - |
| 1777761222 | 23.89° C | 12% | 1465.4 hPa | 0 mm | - | 607 W/m² | - |
* Rain latest hour (hover to see other rain measurements)
** Current wind speed in m/s (hover to see current wind gust speed)